Time;durP1;ratioP1;P1;durP2;ratioP2;P2;SDS_P1;SDS_P2;PMS_P1;PMS_P2;Temp;Humidity;BMP_temperature;BMP_pressure;BME280_temperature;BME280_humidity;BME280_pressure;Samples;Min_cycle;Max_cycle;Signal;HPM_P1;HPM_P2
2022/07/26 00:02:02;;;;;;;;;;;;;;;19.43;52.95;100931.63;5009874;28;19957;-79
2022/07/26 00:04:27;;;;;;;;;;;;;;;19.47;52.64;100930.50;5005256;28;19917;-79
2022/07/26 00:06:52;;;;;;;;;;;;;;;19.55;52.32;100933.59;4998328;28;19926;-78
2022/07/26 00:09:18;;;;;;;;;;;;;;;19.43;52.97;100935.09;5005961;28;20376;-78
2022/07/26 00:11:43;;;;;;;;;;;;;;;19.43;52.78;100943.00;5009513;28;19929;-78
2022/07/26 00:14:08;;;;;;;;;;;;;;;19.28;53.65;100937.72;5003639;28;20036;-78
2022/07/26 00:16:34;;;;;;;;;;;;;;;19.41;53.00;100929.06;5007945;28;19926;-79
2022/07/26 00:19:00;;;;;;;;;;;;;;;19.43;53.22;100935.09;5003394;28;19922;-79
2022/07/26 00:21:25;;;;;;;;;;;;;;;19.40;53.45;100940.53;5005385;28;19925;-78
2022/07/26 00:23:50;;;;;;;;;;;;;;;19.33;53.71;100936.56;5007273;28;19929;-78
2022/07/26 00:26:16;;;;;;;;;;;;;;;19.28;53.49;100932.44;5002678;28;20004;-78
2022/07/26 00:28:41;;;;;;;;;;;;;;;19.23;53.17;100932.66;5008342;28;19929;-79
2022/07/26 00:31:07;;;;;;;;;;;;;;;19.31;53.34;100932.31;5008611;28;19918;-79
2022/07/26 00:33:33;;;;;;;;;;;;;;;19.37;52.89;100935.47;5006139;28;19933;-79
2022/07/26 00:35:59;;;;;;;;;;;;;;;19.04;54.38;100930.19;5001253;28;20384;-79
2022/07/26 00:38:24;;;;;;;;;;;;;;;19.22;53.82;100934.44;5006093;28;19937;-79
2022/07/26 00:40:50;;;;;;;;;;;;;;;19.32;53.54;100931.34;5006006;28;20372;-78
2022/07/26 00:43:15;;;;;;;;;;;;;;;19.26;53.96;100943.03;5010109;28;19945;-78
2022/07/26 00:45:40;;;;;;;;;;;;;;;19.22;54.47;100939.72;5007016;28;20462;-78
2022/07/26 00:48:06;;;;;;;;;;;;;;;19.18;54.88;100935.56;5008492;28;20020;-79
2022/07/26 00:50:31;;;;;;;;;;;;;;;19.18;54.31;100940.84;5009662;28;19922;-78
2022/07/26 00:52:56;;;;;;;;;;;;;;;19.25;53.99;100936.91;5009047;28;19985;-78
2022/07/26 00:55:22;;;;;;;;;;;;;;;19.22;53.88;100937.09;5005866;28;19925;-78
2022/07/26 00:57:47;;;;;;;;;;;;;;;19.15;54.39;100938.38;5007082;28;19914;-78
2022/07/26 01:00:15;;;;;;;;;;;;;;;19.23;54.47;100937.94;5006732;28;19922;-78
2022/07/26 01:02:40;;;;;;;;;;;;;;;19.17;54.26;100952.28;4999998;28;19936;-79
2022/07/26 01:05:06;;;;;;;;;;;;;;;19.10;54.58;100939.56;5003467;28;19922;-78
2022/07/26 01:07:31;;;;;;;;;;;;;;;19.08;54.54;100942.25;5002551;28;20067;-78
2022/07/26 01:09:56;;;;;;;;;;;;;;;19.15;54.51;100935.72;5001747;28;19932;-78
2022/07/26 01:12:22;;;;;;;;;;;;;;;19.12;55.05;100942.94;5001234;28;20387;-78
2022/07/26 01:14:47;;;;;;;;;;;;;;;19.14;54.78;100947.19;5001236;28;19925;-79
2022/07/26 01:17:13;;;;;;;;;;;;;;;19.07;54.80;100953.72;5002210;28;19932;-78
2022/07/26 01:19:39;;;;;;;;;;;;;;;19.00;55.29;100948.84;5003721;28;20015;-78
2022/07/26 01:22:04;;;;;;;;;;;;;;;18.97;55.96;100956.91;5004393;28;20548;-78
2022/07/26 01:24:29;;;;;;;;;;;;;;;19.03;55.88;100959.22;5006395;28;19921;-78
2022/07/26 01:26:55;;;;;;;;;;;;;;;18.93;57.26;100952.72;4998771;28;20390;-78
2022/07/26 01:29:21;;;;;;;;;;;;;;;19.05;55.68;100954.72;5005561;28;19921;-78
2022/07/26 01:31:46;;;;;;;;;;;;;;;18.95;56.12;100958.78;5006084;28;19932;-78
2022/07/26 01:34:11;;;;;;;;;;;;;;;18.86;57.10;100960.13;5009036;28;20022;-78
2022/07/26 01:36:37;;;;;;;;;;;;;;;18.80;56.71;100957.81;5000195;28;19922;-78
2022/07/26 01:39:02;;;;;;;;;;;;;;;18.77;56.58;100965.88;5007965;28;19921;-78
2022/07/26 01:41:27;;;;;;;;;;;;;;;18.88;56.08;100954.75;5007920;28;19926;-78
2022/07/26 01:43:53;;;;;;;;;;;;;;;18.83;56.91;100968.19;5002610;28;19921;-78
2022/07/26 01:46:18;;;;;;;;;;;;;;;18.92;56.23;100967.69;5001157;28;19925;-78
2022/07/26 01:48:43;;;;;;;;;;;;;;;18.89;56.27;100967.88;5005306;28;19918;-78
2022/07/26 01:51:09;;;;;;;;;;;;;;;18.82;56.67;100970.88;5001687;28;19926;-78
2022/07/26 01:53:34;;;;;;;;;;;;;;;18.85;56.76;100973.34;4998778;28;20490;-78
2022/07/26 01:55:59;;;;;;;;;;;;;;;18.88;57.02;100963.50;4999315;28;19936;-78
2022/07/26 01:58:25;;;;;;;;;;;;;;;18.79;57.25;100969.25;5000870;28;19945;-78
2022/07/26 02:00:50;;;;;;;;;;;;;;;18.85;56.86;100968.09;4994420;28;19933;-78
2022/07/26 02:03:16;;;;;;;;;;;;;;;18.86;57.45;100975.06;5002899;28;19926;-78
2022/07/26 02:05:41;;;;;;;;;;;;;;;18.76;57.80;100972.03;5003998;28;20004;-78
2022/07/26 02:08:06;;;;;;;;;;;;;;;18.72;58.34;100980.19;5000418;28;19926;-78
2022/07/26 02:13:16;;;;;;;;;;;;;;;18.67;58.28;100986.53;5001388;28;19944;-78
2022/07/26 02:15:41;;;;;;;;;;;;;;;18.65;58.47;100988.41;4999733;28;19932;-78
2022/07/26 02:18:07;;;;;;;;;;;;;;;18.60;58.67;100979.03;4997889;28;20304;-78
2022/07/26 02:20:32;;;;;;;;;;;;;;;18.56;59.37;100985.38;4999139;28;20392;-78
2022/07/26 02:22:59;;;;;;;;;;;;;;;18.56;58.62;100986.22;4997940;28;19926;-78
2022/07/26 02:25:25;;;;;;;;;;;;;;;18.50;58.79;100985.69;4994701;28;20332;-78
2022/07/26 02:27:50;;;;;;;;;;;;;;;18.51;58.83;100988.22;4988923;28;20008;-78
2022/07/26 02:30:15;;;;;;;;;;;;;;;18.53;58.21;100981.13;5005251;28;19921;-78
2022/07/26 02:32:42;;;;;;;;;;;;;;;18.51;59.11;100995.28;5003691;28;19926;-78
2022/07/26 02:35:08;;;;;;;;;;;;;;;18.47;58.97;100989.31;5000655;28;20351;-78
2022/07/26 02:37:33;;;;;;;;;;;;;;;18.45;59.62;100992.94;5000997;28;19929;-78
2022/07/26 02:39:58;;;;;;;;;;;;;;;18.48;59.68;100998.06;4997521;28;20476;-78
2022/07/26 02:42:24;;;;;;;;;;;;;;;18.44;59.64;100999.97;5000230;28;19964;-78
2022/07/26 02:44:49;;;;;;;;;;;;;;;18.50;59.35;100998.84;5002030;28;21378;-78
2022/07/26 02:47:14;;;;;;;;;;;;;;;18.54;59.49;101006.47;5000750;28;19930;-78
2022/07/26 02:49:40;;;;;;;;;;;;;;;18.53;59.62;101010.06;5000403;28;19979;-78
2022/07/26 02:52:05;;;;;;;;;;;;;;;18.53;59.35;101003.94;5002855;28;19928;-78
2022/07/26 02:54:30;;;;;;;;;;;;;;;18.51;59.42;101011.91;4997034;28;20019;-78
2022/07/26 02:56:56;;;;;;;;;;;;;;;18.52;59.47;101010.97;4998587;28;19922;-78
2022/07/26 02:59:21;;;;;;;;;;;;;;;18.59;59.17;101014.16;5004210;28;20418;-78
2022/07/26 03:01:46;;;;;;;;;;;;;;;18.59;59.46;101015.03;5002673;28;19925;-78
2022/07/26 03:04:12;;;;;;;;;;;;;;;18.59;59.35;101014.16;5000286;28;19921;-78
2022/07/26 03:06:37;;;;;;;;;;;;;;;18.59;59.35;101008.91;4982713;28;20415;-78
2022/07/26 03:09:03;;;;;;;;;;;;;;;18.51;59.72;101016.34;5004526;28;19944;-78
2022/07/26 03:11:28;;;;;;;;;;;;;;;18.56;59.86;101011.69;5006491;28;19922;-78
2022/07/26 03:13:54;;;;;;;;;;;;;;;18.58;59.55;101013.31;4998414;28;19926;-78
2022/07/26 03:16:19;;;;;;;;;;;;;;;18.56;60.13;101002.03;5003053;28;19921;-78
2022/07/26 03:18:44;;;;;;;;;;;;;;;18.58;60.01;101008.03;5005237;28;19913;-78
2022/07/26 03:21:10;;;;;;;;;;;;;;;18.58;59.76;101005.41;4997554;28;19922;-78
2022/07/26 03:23:36;;;;;;;;;;;;;;;18.59;59.51;101008.91;4998003;28;20004;-78
2022/07/26 03:26:02;;;;;;;;;;;;;;;18.58;59.69;101012.44;5000521;28;19926;-78
2022/07/26 03:28:28;;;;;;;;;;;;;;;18.55;59.06;101007.34;5005735;28;19921;-78
2022/07/26 03:30:53;;;;;;;;;;;;;;;18.51;59.02;101014.53;5001712;28;19918;-78
2022/07/26 03:33:19;;;;;;;;;;;;;;;18.49;59.65;101012.91;4996345;28;19921;-78
2022/07/26 03:35:44;;;;;;;;;;;;;;;18.48;59.21;101012.06;5014026;28;20376;-78
2022/07/26 03:38:09;;;;;;;;;;;;;;;18.45;59.97;101017.47;5001319;28;20543;-78
2022/07/26 03:40:35;;;;;;;;;;;;;;;18.43;59.60;101018.44;5001908;28;20975;-78
2022/07/26 03:43:00;;;;;;;;;;;;;;;18.42;59.45;101016.75;5001695;28;19930;-78
2022/07/26 03:45:25;;;;;;;;;;;;;;;18.41;59.06;101017.66;4993456;28;19926;-78
2022/07/26 03:47:52;;;;;;;;;;;;;;;18.41;59.14;101021.16;4999041;28;19925;-78
2022/07/26 03:50:17;;;;;;;;;;;;;;;18.37;59.07;101018.75;4998769;28;19922;-78
2022/07/26 03:52:42;;;;;;;;;;;;;;;18.39;59.23;101024.81;4999889;28;19929;-78
2022/07/26 03:57:52;;;;;;;;;;;;;;;18.37;60.11;101029.25;4998905;28;19968;-78
2022/07/26 04:00:17;;;;;;;;;;;;;;;18.39;59.64;101025.63;4998121;28;19972;-78
2022/07/26 04:02:43;;;;;;;;;;;;;;;18.31;60.29;101029.56;4999502;28;19975;-78
2022/07/26 04:05:08;;;;;;;;;;;;;;;18.34;59.15;101027.63;4998119;28;19926;-78
2022/07/26 04:07:39;;;;;;;;;;;;;;;18.31;58.94;101033.03;5002807;28;19917;-78
2022/07/26 04:10:05;;;;;;;;;;;;;;;18.34;58.81;101038.16;4997362;28;20024;-78
2022/07/26 04:12:30;;;;;;;;;;;;;;;18.35;59.51;101033.75;5002537;28;20109;-78
2022/07/26 04:14:56;;;;;;;;;;;;;;;18.36;59.61;101038.91;5006161;28;20000;-78
2022/07/26 04:17:21;;;;;;;;;;;;;;;18.40;59.28;101044.91;5002526;28;19974;-78
2022/07/26 04:19:46;;;;;;;;;;;;;;;18.35;59.13;101046.91;5001584;28;19922;-78
2022/07/26 04:22:12;;;;;;;;;;;;;;;18.33;58.96;101044.38;5003629;28;19929;-78
2022/07/26 04:24:37;;;;;;;;;;;;;;;18.25;59.47;101041.22;5005603;28;19984;-78
2022/07/26 04:27:02;;;;;;;;;;;;;;;18.39;59.23;101043.22;5002271;28;19926;-78
2022/07/26 04:29:28;;;;;;;;;;;;;;;18.37;59.38;101045.03;5001846;28;19922;-78
2022/07/26 04:31:53;;;;;;;;;;;;;;;18.44;58.90;101051.72;4999235;28;19922;-78
2022/07/26 04:34:18;;;;;;;;;;;;;;;18.40;59.52;101051.00;5001735;28;19928;-78
2022/07/26 04:36:44;;;;;;;;;;;;;;;18.38;59.76;101050.25;4996725;28;19960;-78
2022/07/26 04:39:10;;;;;;;;;;;;;;;18.38;59.50;101041.50;4999137;28;19965;-78
2022/07/26 04:41:35;;;;;;;;;;;;;;;18.42;59.15;101046.50;4999499;28;19925;-78
2022/07/26 04:44:00;;;;;;;;;;;;;;;18.48;59.39;101042.78;5003501;28;19939;-78
2022/07/26 04:46:25;;;;;;;;;;;;;;;18.43;59.46;101044.75;4998652;28;19922;-78
2022/07/26 04:48:51;;;;;;;;;;;;;;;18.47;59.90;101044.56;4999293;28;20017;-78
2022/07/26 04:51:16;;;;;;;;;;;;;;;18.48;59.59;101046.25;5004014;28;19972;-78
2022/07/26 04:53:41;;;;;;;;;;;;;;;18.45;59.99;101048.16;4999433;28;20307;-78
2022/07/26 04:56:07;;;;;;;;;;;;;;;18.48;60.08;101048.06;5004799;28;20350;-78
2022/07/26 04:58:32;;;;;;;;;;;;;;;18.44;59.93;101049.09;5004430;28;20284;-78
2022/07/26 05:00:58;;;;;;;;;;;;;;;18.47;59.90;101051.59;5001501;28;20482;-78
2022/07/26 05:03:24;;;;;;;;;;;;;;;18.44;60.18;101047.31;5001355;28;19931;-78
2022/07/26 05:05:49;;;;;;;;;;;;;;;18.55;59.75;101052.06;4999455;28;19952;-78
2022/07/26 05:08:15;;;;;;;;;;;;;;;18.59;60.21;101051.00;5003093;28;19975;-78
2022/07/26 05:10:40;;;;;;;;;;;;;;;18.59;60.13;101056.25;5003987;28;19925;-78
2022/07/26 05:13:06;;;;;;;;;;;;;;;18.53;60.03;101052.16;5002151;28;19964;-77
2022/07/26 05:15:32;;;;;;;;;;;;;;;18.58;60.22;101050.13;5005047;28;19934;-78
2022/07/26 05:18:02;;;;;;;;;;;;;;;18.62;59.71;101053.47;4999000;28;19921;-78
2022/07/26 05:20:27;;;;;;;;;;;;;;;18.59;60.11;101054.50;5004119;28;19922;-78
2022/07/26 05:22:53;;;;;;;;;;;;;;;18.59;59.98;101051.00;5004776;28;19925;-78
2022/07/26 05:25:18;;;;;;;;;;;;;;;18.52;60.64;101057.47;4994899;28;19922;-78
2022/07/26 05:27:43;;;;;;;;;;;;;;;18.55;60.56;101057.34;5005004;28;20056;-78
2022/07/26 05:30:09;;;;;;;;;;;;;;;18.57;60.49;101055.50;5003828;28;19921;-78
2022/07/26 05:32:34;;;;;;;;;;;;;;;18.58;60.34;101057.19;4996498;28;20004;-78
2022/07/26 05:35:00;;;;;;;;;;;;;;;18.58;60.85;101049.28;5008112;28;19922;-78
2022/07/26 05:37:25;;;;;;;;;;;;;;;18.56;60.84;101049.38;5003360;28;20340;-78
2022/07/26 05:39:50;;;;;;;;;;;;;;;18.59;60.97;101046.59;5004117;28;19952;-80
2022/07/26 05:42:16;;;;;;;;;;;;;;;18.66;60.87;101049.75;5007426;28;20533;-81
2022/07/26 05:44:41;;;;;;;;;;;;;;;18.69;60.41;101046.97;5000248;28;20415;-81
2022/07/26 05:47:07;;;;;;;;;;;;;;;18.63;60.22;101050.75;4999663;28;19921;-80
2022/07/26 05:49:32;;;;;;;;;;;;;;;18.74;59.89;101055.50;5007926;28;19984;-80
2022/07/26 05:51:58;;;;;;;;;;;;;;;18.53;60.09;101052.16;5002052;28;19963;-81
2022/07/26 05:54:23;;;;;;;;;;;;;;;18.66;60.78;101057.63;4997980;28;19928;-81
2022/07/26 05:56:48;;;;;;;;;;;;;;;18.77;60.70;101052.72;5003879;28;20300;-80
2022/07/26 05:59:13;;;;;;;;;;;;;;;18.72;61.27;101056.50;5002347;28;21230;-80
2022/07/26 06:01:39;;;;;;;;;;;;;;;18.69;61.20;101054.84;5001550;28;22175;-80
2022/07/26 06:04:04;;;;;;;;;;;;;;;18.74;61.05;101066.03;5000901;28;20499;-81
2022/07/26 06:06:29;;;;;;;;;;;;;;;18.72;61.29;101059.97;5001791;28;19932;-81
2022/07/26 06:08:55;;;;;;;;;;;;;;;18.74;61.50;101052.88;5005315;28;20013;-81
2022/07/26 06:11:20;;;;;;;;;;;;;;;18.83;60.81;101059.44;5003532;28;19925;-81
2022/07/26 06:13:46;;;;;;;;;;;;;;;18.86;60.63;101054.03;5006727;28;20352;-81
2022/07/26 06:16:12;;;;;;;;;;;;;;;18.83;61.92;101060.31;5001951;28;19930;-81
2022/07/26 06:18:37;;;;;;;;;;;;;;;18.92;60.55;101054.56;4999941;28;19922;-81
2022/07/26 06:21:02;;;;;;;;;;;;;;;18.93;60.96;101058.88;5004638;28;19984;-81
2022/07/26 06:23:28;;;;;;;;;;;;;;;18.89;61.11;101059.13;4996630;28;20012;-81
2022/07/26 06:25:53;;;;;;;;;;;;;;;18.91;60.75;101059.91;4994681;28;19922;-81
2022/07/26 06:28:18;;;;;;;;;;;;;;;18.87;61.38;101067.09;4998464;28;19921;-81
2022/07/26 06:30:44;;;;;;;;;;;;;;;18.85;61.30;101071.59;5003150;28;20010;-81
2022/07/26 06:33:10;;;;;;;;;;;;;;;18.76;61.19;101073.84;5001629;28;19921;-81
2022/07/26 06:35:38;;;;;;;;;;;;;;;18.73;61.57;101069.56;5001815;28;19921;-81
2022/07/26 06:38:04;;;;;;;;;;;;;;;18.88;61.71;101071.44;5000985;28;20662;-81
2022/07/26 06:40:30;;;;;;;;;;;;;;;18.82;61.86;101084.06;5000211;28;20398;-81
2022/07/26 06:42:55;;;;;;;;;;;;;;;18.93;61.54;101077.31;5001738;28;19925;-81
2022/07/26 06:45:21;;;;;;;;;;;;;;;18.95;61.09;101083.38;5005285;28;20391;-81
2022/07/26 06:47:46;;;;;;;;;;;;;;;18.97;60.97;101084.16;5003642;28;19944;-81
2022/07/26 06:50:11;;;;;;;;;;;;;;;18.91;61.43;101088.84;4986791;28;19922;-81
2022/07/26 06:52:37;;;;;;;;;;;;;;;18.93;61.25;101093.13;5004005;28;19929;-81
2022/07/26 06:55:02;;;;;;;;;;;;;;;18.94;61.12;101094.81;4986749;28;19925;-81
2022/07/26 06:57:28;;;;;;;;;;;;;;;18.99;60.95;101091.94;5001275;28;20000;-81
2022/07/26 06:59:53;;;;;;;;;;;;;;;18.92;61.62;101101.09;5002366;28;19928;-81
2022/07/26 07:02:18;;;;;;;;;;;;;;;18.92;61.43;101098.47;4999123;28;20020;-81
2022/07/26 07:04:44;;;;;;;;;;;;;;;18.96;61.16;101102.63;4999596;28;20057;-81
2022/07/26 07:07:09;;;;;;;;;;;;;;;18.99;61.08;101098.06;4995311;28;20387;-81
2022/07/26 07:09:35;;;;;;;;;;;;;;;18.93;61.91;101108.06;5003404;28;19929;-81
2022/07/26 07:12:04;;;;;;;;;;;;;;;19.00;62.55;101105.06;5000590;28;19921;-81
2022/07/26 07:14:29;;;;;;;;;;;;;;;19.00;61.73;101105.06;5001267;28;19921;-81
2022/07/26 07:16:55;;;;;;;;;;;;;;;18.98;61.70;101100.78;5014103;28;19925;-81
2022/07/26 07:19:20;;;;;;;;;;;;;;;18.90;62.21;101110.84;4999956;28;19991;-81
2022/07/26 07:21:46;;;;;;;;;;;;;;;18.97;61.74;101102.56;5005338;28;19925;-81
2022/07/26 07:24:11;;;;;;;;;;;;;;;18.95;62.13;101111.47;4998781;28;20016;-81
2022/07/26 07:26:36;;;;;;;;;;;;;;;19.01;62.48;101112.03;5000839;28;19921;-81
2022/07/26 07:29:02;;;;;;;;;;;;;;;18.82;63.05;101120.91;5000089;28;20429;-81
2022/07/26 07:31:27;;;;;;;;;;;;;;;19.01;62.20;101124.34;4999290;28;19917;-81
2022/07/26 07:33:56;;;;;;;;;;;;;;;18.88;62.90;101117.97;5001972;28;19972;-81
2022/07/26 07:36:21;;;;;;;;;;;;;;;18.89;62.84;101124.94;5003075;28;19929;-81
2022/07/26 07:38:50;;;;;;;;;;;;;;;18.90;62.99;101121.38;5000220;28;20415;-81
2022/07/26 07:41:19;;;;;;;;;;;;;;;19.01;62.54;101127.81;4999345;28;19928;-81
2022/07/26 07:43:44;;;;;;;;;;;;;;;19.07;62.15;101129.28;4999711;28;19925;-82
2022/07/26 07:46:12;;;;;;;;;;;;;;;19.10;62.01;101132.63;4999818;28;19918;-81
2022/07/26 07:48:39;;;;;;;;;;;;;;;19.08;62.63;101134.47;5001600;28;20016;-81
2022/07/26 07:51:05;;;;;;;;;;;;;;;18.95;62.43;101136.03;5005726;28;19922;-81
2022/07/26 07:53:31;;;;;;;;;;;;;;;18.92;62.99;101133.56;5004644;28;19924;-81
2022/07/26 07:55:59;;;;;;;;;;;;;;;19.10;62.87;101143.16;5000492;28;19930;-81
2022/07/26 07:58:27;;;;;;;;;;;;;;;19.10;62.51;101131.78;5003692;28;19952;-81
2022/07/26 08:00:52;;;;;;;;;;;;;;;19.14;62.92;101136.78;5000894;28;19921;-81
2022/07/26 08:03:18;;;;;;;;;;;;;;;19.23;62.43;101128.44;5003559;28;19926;-81
2022/07/26 08:05:47;;;;;;;;;;;;;;;19.27;63.10;101131.75;5004638;28;19982;-81
2022/07/26 08:08:12;;;;;;;;;;;;;;;19.37;62.27;101127.78;5009218;28;20017;-81
2022/07/26 08:10:38;;;;;;;;;;;;;;;19.26;61.92;101125.63;5010499;28;20376;-81
2022/07/26 08:13:06;;;;;;;;;;;;;;;19.33;61.54;101133.25;5008156;28;20384;-81
2022/07/26 08:15:31;;;;;;;;;;;;;;;19.29;61.78;101124.66;5002087;28;19933;-81
2022/07/26 08:17:56;;;;;;;;;;;;;;;19.41;61.99;101126.66;5006139;28;19929;-81
2022/07/26 08:20:22;;;;;;;;;;;;;;;19.40;62.40;101122.31;5004847;28;20020;-81
2022/07/26 08:22:47;;;;;;;;;;;;;;;19.36;62.40;101117.31;4999722;28;19925;-81
2022/07/26 08:25:12;;;;;;;;;;;;;;;19.19;61.97;101124.25;5005014;28;19925;-81
2022/07/26 08:27:38;;;;;;;;;;;;;;;19.32;61.58;101124.50;5000642;28;19921;-81
2022/07/26 08:30:03;;;;;;;;;;;;;;;19.45;61.20;101122.94;4998556;28;19922;-81
2022/07/26 08:32:29;;;;;;;;;;;;;;;19.33;61.51;101131.47;5002338;28;19929;-81
2022/07/26 08:34:54;;;;;;;;;;;;;;;19.48;61.13;101128.06;5001209;28;19926;-81
2022/07/26 08:37:19;;;;;;;;;;;;;;;19.52;60.79;101126.94;5006360;28;20031;-81
2022/07/26 08:39:47;;;;;;;;;;;;;;;19.57;61.23;101127.56;5004136;28;20105;-81
2022/07/26 08:42:17;;;;;;;;;;;;;;;19.63;60.70;101127.25;5005802;28;20427;-81
2022/07/26 08:44:43;;;;;;;;;;;;;;;19.65;61.59;101133.28;5003675;28;20288;-81
2022/07/26 08:47:13;;;;;;;;;;;;;;;19.52;60.43;101136.66;5005370;28;20312;-81
2022/07/26 08:49:39;;;;;;;;;;;;;;;19.64;60.61;101136.03;5001780;28;19918;-81
2022/07/26 08:52:04;;;;;;;;;;;;;;;19.65;60.75;101145.63;5000812;28;19917;-81
2022/07/26 08:54:33;;;;;;;;;;;;;;;19.66;60.71;101139.41;5003146;28;19929;-81
2022/07/26 08:56:59;;;;;;;;;;;;;;;19.54;60.78;101142.69;4999869;28;19921;-81
2022/07/26 08:59:24;;;;;;;;;;;;;;;19.51;61.38;101142.84;5003230;28;19933;-81
2022/07/26 09:01:50;;;;;;;;;;;;;;;19.49;61.00;101156.09;5001851;28;19932;-81
2022/07/26 09:04:19;;;;;;;;;;;;;;;19.47;60.91;101134.25;5006070;28;20060;-81
2022/07/26 09:07:03;;;;;;;;;;;;;;;19.40;61.35;101143.38;4997363;28;19921;-81
2022/07/26 09:09:30;;;;;;;;;;;;;;;19.36;61.18;101147.13;5003865;28;20013;-81
2022/07/26 09:11:55;;;;;;;;;;;;;;;19.30;61.26;101151.84;4998366;28;20438;-81
2022/07/26 09:14:21;;;;;;;;;;;;;;;19.35;61.27;101157.72;5002033;28;19926;-81
2022/07/26 09:16:57;;;;;;;;;;;;;;;19.39;61.68;101159.28;5004812;28;19948;-81
2022/07/26 09:19:25;;;;;;;;;;;;;;;19.33;62.47;101162.25;5006045;28;19979;-81
2022/07/26 09:21:51;;;;;;;;;;;;;;;19.36;60.67;101167.34;4999937;28;20388;-81
2022/07/26 09:24:30;;;;;;;;;;;;;;;19.28;61.12;101167.75;5003041;28;19933;-81
2022/07/26 09:26:55;;;;;;;;;;;;;;;19.44;61.24;101166.03;4997914;28;19929;-81
2022/07/26 09:29:21;;;;;;;;;;;;;;;19.49;61.01;101166.63;5003203;28;19926;-81
2022/07/26 09:31:46;;;;;;;;;;;;;;;19.39;61.77;101165.41;5005034;28;19950;-81
2022/07/26 09:34:22;;;;;;;;;;;;;;;19.52;60.92;101168.28;4999739;28;19973;-81
2022/07/26 09:36:52;;;;;;;;;;;;;;;19.50;60.75;101159.59;4999758;28;19928;-81
2022/07/26 09:39:17;;;;;;;;;;;;;;;19.38;61.29;101163.72;5002896;28;19933;-81
2022/07/26 09:41:42;;;;;;;;;;;;;;;19.27;61.02;101166.00;5005032;28;19921;-81
2022/07/26 09:44:25;;;;;;;;;;;;;;;19.29;61.45;101164.16;5004570;28;20292;-81
2022/07/26 09:46:52;;;;;;;;;;;;;;;19.44;60.76;101160.75;5003223;28;19929;-81
2022/07/26 09:49:18;;;;;;;;;;;;;;;19.48;60.55;101154.41;5000661;28;19932;-81
2022/07/26 09:51:47;;;;;;;;;;;;;;;19.52;60.42;101157.75;5001359;28;19932;-81
2022/07/26 09:54:30;;;;;;;;;;;;;;;19.43;60.48;101148.50;5000754;28;19922;-81
2022/07/26 09:56:56;;;;;;;;;;;;;;;19.57;60.57;101153.94;4996290;28;19929;-81
2022/07/26 09:59:22;;;;;;;;;;;;;;;19.57;59.90;101160.97;4999274;28;19975;-81
2022/07/26 10:01:48;;;;;;;;;;;;;;;19.59;59.08;101159.97;4997194;28;19933;-81
2022/07/26 10:04:14;;;;;;;;;;;;;;;19.72;59.24;101170.72;4998549;28;19929;-81
2022/07/26 10:06:40;;;;;;;;;;;;;;;19.85;59.77;101157.75;5002838;28;19929;-81
2022/07/26 10:09:07;;;;;;;;;;;;;;;19.83;58.71;101163.09;5004664;28;19928;-81
2022/07/26 10:11:41;;;;;;;;;;;;;;;19.86;58.89;101165.56;5001043;28;19928;-78
2022/07/26 10:14:25;;;;;;;;;;;;;;;19.75;59.02;101167.94;4998600;28;20549;-78
2022/07/26 10:16:50;;;;;;;;;;;;;;;19.78;57.68;101162.50;5000309;28;19926;-78
2022/07/26 10:19:34;;;;;;;;;;;;;;;19.84;57.47;101162.19;5006289;28;19921;-79
2022/07/26 10:22:18;;;;;;;;;;;;;;;19.82;57.88;101161.38;5014925;28;19992;-79
2022/07/26 10:24:43;;;;;;;;;;;;;;;19.95;58.86;101170.34;5003824;28;19922;-79
2022/07/26 10:27:29;;;;;;;;;;;;;;;19.98;58.31;101175.47;5000505;28;20303;-79
2022/07/26 10:30:14;;;;;;;;;;;;;;;19.94;56.77;101171.28;4997580;28;19928;-79
2022/07/26 10:32:40;;;;;;;;;;;;;;;19.83;57.13;101168.38;5003468;28;19922;-78
2022/07/26 10:35:24;;;;;;;;;;;;;;;20.01;57.95;101170.03;5004025;28;20359;-78
2022/07/26 10:38:00;;;;;;;;;;;;;;;20.03;57.94;101175.19;5004236;28;19926;-79
2022/07/26 10:40:29;;;;;;;;;;;;;;;20.07;57.81;101167.06;4999202;28;20327;-79
2022/07/26 10:43:14;;;;;;;;;;;;;;;20.09;57.82;101164.34;5002522;28;19926;-79
2022/07/26 10:45:42;;;;;;;;;;;;;;;20.18;58.05;101174.41;4999770;28;19921;-78
2022/07/26 10:48:12;;;;;;;;;;;;;;;20.10;57.56;101168.72;5000440;28;19922;-78
2022/07/26 10:50:38;;;;;;;;;;;;;;;20.25;58.12;101163.47;5006508;28;19925;-78
2022/07/26 10:53:04;;;;;;;;;;;;;;;20.32;57.44;101170.09;5001109;28;19928;-78
2022/07/26 10:55:29;;;;;;;;;;;;;;;20.33;57.75;101163.88;4999590;28;19948;-78
2022/07/26 10:57:54;;;;;;;;;;;;;;;20.41;56.38;101171.41;5001976;28;19930;-79
2022/07/26 11:00:24;;;;;;;;;;;;;;;20.25;56.16;101168.75;4997103;28;19921;-79
2022/07/26 11:02:53;;;;;;;;;;;;;;;20.18;55.99;101175.28;5002181;28;20384;-77
2022/07/26 11:05:20;;;;;;;;;;;;;;;20.17;55.96;101173.56;5001105;28;19925;-79
2022/07/26 11:08:08;;;;;;;;;;;;;;;20.19;56.04;101176.13;5002430;28;20296;-79
2022/07/26 11:10:38;;;;;;;;;;;;;;;20.22;56.37;101168.03;5007692;28;19918;-79
2022/07/26 11:13:06;;;;;;;;;;;;;;;20.22;56.08;101168.03;5007355;28;20312;-78
2022/07/26 11:15:32;;;;;;;;;;;;;;;20.32;55.08;101166.63;5004325;28;20020;-79
2022/07/26 11:18:07;;;;;;;;;;;;;;;20.29;54.81;101172.06;5007879;28;20005;-79
2022/07/26 11:20:32;;;;;;;;;;;;;;;20.29;55.31;101164.16;5001734;28;19928;-79
2022/07/26 11:22:58;;;;;;;;;;;;;;;20.19;54.67;101161.16;4999377;28;20004;-79
2022/07/26 11:25:23;;;;;;;;;;;;;;;20.21;54.18;101169.81;5000804;28;19918;-79
2022/07/26 11:28:02;;;;;;;;;;;;;;;20.37;55.08;101176.91;5002344;28;19928;-79
2022/07/26 11:30:28;;;;;;;;;;;;;;;20.24;55.09;101171.44;5005926;28;19944;-79
2022/07/26 11:32:54;;;;;;;;;;;;;;;20.11;55.30;101175.69;5004593;28;19921;-79
2022/07/26 11:35:20;;;;;;;;;;;;;;;20.23;55.66;101172.41;5002492;28;19922;-79
2022/07/26 11:37:55;;;;;;;;;;;;;;;20.29;55.93;101167.63;5004437;28;19996;-79
2022/07/26 11:40:39;;;;;;;;;;;;;;;20.30;55.51;101169.31;5009687;28;19972;-79
2022/07/26 11:43:05;;;;;;;;;;;;;;;20.23;56.01;101157.41;5014239;28;19922;-79
2022/07/26 11:45:30;;;;;;;;;;;;;;;20.38;54.74;101150.44;5004125;28;19945;-79
2022/07/26 11:47:58;;;;;;;;;;;;;;;20.42;55.02;101157.25;5009194;28;20431;-79
2022/07/26 11:50:24;;;;;;;;;;;;;;;20.46;53.37;101155.28;5000905;28;20360;-79
2022/07/26 11:52:50;;;;;;;;;;;;;;;20.39;52.38;101138.09;5003044;28;19928;-79
2022/07/26 11:55:24;;;;;;;;;;;;;;;20.34;53.72;101143.63;5004429;28;19918;-79
2022/07/26 11:57:49;;;;;;;;;;;;;;;20.57;52.08;101139.69;5007515;28;19976;-79
2022/07/26 12:00:15;;;;;;;;;;;;;;;20.57;53.28;101145.81;5009043;28;19922;-79
2022/07/26 12:02:41;;;;;;;;;;;;;;;20.64;52.88;101141.91;5006862;28;20016;-79
2022/07/26 12:05:17;;;;;;;;;;;;;;;20.56;52.40;101144.13;5011476;28;20020;-79
2022/07/26 12:08:15;;;;;;;;;;;;;;;20.44;52.92;101147.44;5003207;28;19929;-80
2022/07/26 12:10:40;;;;;;;;;;;;;;;20.43;52.90;101152.81;4993549;28;19965;-80
2022/07/26 12:13:13;;;;;;;;;;;;;;;20.33;53.61;101160.38;5002656;28;19968;-80
2022/07/26 12:15:45;;;;;;;;;;;;;;;20.23;53.93;101175.84;5003058;28;19922;-80
2022/07/26 12:18:19;;;;;;;;;;;;;;;20.14;54.86;101178.19;5005747;28;19921;-80
2022/07/26 12:20:55;;;;;;;;;;;;;;;19.98;55.42;101193.94;5000159;28;20399;-80
2022/07/26 12:23:20;;;;;;;;;;;;;;;19.80;55.18;101197.53;5006850;28;19952;-80
2022/07/26 12:25:45;;;;;;;;;;;;;;;19.79;57.88;101209.84;5001852;28;19925;-80
2022/07/26 12:28:10;;;;;;;;;;;;;;;19.71;59.42;101212.03;5003432;28;20352;-80
2022/07/26 12:30:36;;;;;;;;;;;;;;;19.59;59.54;101217.94;5007250;28;19922;-80
2022/07/26 12:33:01;;;;;;;;;;;;;;;19.72;61.83;101226.94;5001416;28;19926;-80
2022/07/26 12:35:32;;;;;;;;;;;;;;;19.64;60.22;101215.09;5006475;28;19922;-80
2022/07/26 12:37:58;;;;;;;;;;;;;;;19.63;59.67;101216.00;5001749;28;20082;-80
2022/07/26 12:40:24;;;;;;;;;;;;;;;19.67;58.59;101210.50;5006428;28;19917;-80